• Join FlightAware (Why Join?)
  • Login
  • US Flag 
08:47PM EST


 

Airport Tracker/Info


-or-


 

Live Flight TrackerFlight Track Log ✈ N9AP ✈ 30-Apr-2012 ✈ KOLE - KBKL

Flight Track Log - Related Links

Times and Time Zones

All times are in EDT time to prevent confusion due to time zone crossing. See the N9AP flight status page for this flight to view local times or setup timezone preferences in your user account.

Time Position Orientation Groundspeed Altitude Reporting Facility
EDT Latitude Longitude Course Direction KTS MPH feet Rate Location/Type
07:10AM 42.2278 -78.4464 260° West 165 190 3,700  Level Cleveland Center
07:11AM 42.2222 -78.4886 259° West 142 163 4,600 840 Climbing Cleveland Center
07:12AM 42.2167 -78.5281 253° West 114 131 5,400 600 Climbing Cleveland Center
07:13AM 42.2072 -78.5706 254° West 114 131 5,900 240 Climbing Cleveland Center
07:14AM 42.1994 -78.6072 257° West 114 131 5,900  Level Cleveland Center
07:15AM 42.1900 -78.6608 251° West 127 146 5,900  Level Cleveland Center
07:16AM 42.1781 -78.7086 256° West 139 160 5,900  Level Cleveland Center
07:17AM 42.1686 -78.7594 253° West 146 168 5,900  Level Cleveland Center
07:18AM 42.1569 -78.8103 252° West 146 168 5,900  Level Cleveland Center
07:19AM 42.1450 -78.8608 250° West 146 168 5,900  Level Cleveland Center
07:20AM 42.1314 -78.9117 255° West 146 168 5,900  Level Cleveland Center
07:54AM 41.7494 -80.6917 248° West 146 168 5,900  Level Cleveland Center
07:55AM 41.7306 -80.7528 247° West 148 170 5,900  Level Cleveland Center
07:56AM 41.7158 -80.8000 244° Southwest 148 170 5,900  Level Cleveland Center
07:57AM 41.6969 -80.8528 246° West 146 168 5,900  Level Cleveland Center
07:58AM 41.6803 -80.9028 252° West 147 169 5,900 -120 Level Cleveland Center
07:59AM 41.6675 -80.9556 252° West 147 169 5,700 -600 Descending Cleveland Center
08:00AM 41.6528 -81.0167 251° West 178 205 4,800 -780 Descending Cleveland Center
08:01AM 41.6378 -81.0750 260° West 170 196 4,200 -420 Descending Cleveland Center
08:02AM 41.6292 -81.1386 258° West 162 186 4,000 -180 Descending Cleveland Center
08:03AM 41.6206 -81.1942 258° West 154 177 3,900 -60 Descending Cleveland Center
08:04AM 41.6119 -81.2469 258° West 149 171 3,900  Level Cleveland Center
08:05AM 41.6033 -81.3022 260° West 148 170 3,900  Level Cleveland Center
08:06AM 41.5967 -81.3550 261° West 149 171 3,900 -480 Level Cleveland Center
08:07AM 41.5900 -81.4133 267° West 166 191 3,000 -600 Descending Cleveland Center
08:08AM 41.5875 -81.4714 270° West 159 183 2,700 -360 Descending Cleveland Center
08:09AM 41.5872 -81.5297 253° West 155 178 2,300 -300 Descending Cleveland Center
08:10AM 41.5742 -81.5878 252° West 152 175 2,100 -120 Descending Cleveland Center
08:11AM 41.5633 -81.6322 251° West 136 157 2,100  Level Cleveland Center
08:12AM 41.5525 -81.6736 239° Southwest 116 133 2,100 -60 Level Cleveland Center
08:13AM 41.5353 -81.7122 211° Southwest 108 124 2,000 -420 Descending Cleveland Center
08:14AM 41.5186 -81.7256 211° Southwest 85 98 1,300 -720 Descending Cleveland Center